sensor_id;sensor_type;location;lat;lon;timestamp;temperature;humidity
17791;DHT22;9019;48.132;-1.210;2022-08-03T00:00:55;19.10;99.90
17791;DHT22;9019;48.132;-1.210;2022-08-03T00:03:22;19.10;99.90
17791;DHT22;9019;48.132;-1.210;2022-08-03T00:05:49;19.00;99.90
17791;DHT22;9019;48.132;-1.210;2022-08-03T00:08:18;19.00;99.90
17791;DHT22;9019;48.132;-1.210;2022-08-03T00:10:44;19.00;99.90
17791;DHT22;9019;48.132;-1.210;2022-08-03T00:13:12;18.90;99.90
17791;DHT22;9019;48.132;-1.210;2022-08-03T00:15:39;18.90;99.90
17791;DHT22;9019;48.132;-1.210;2022-08-03T00:18:06;18.80;99.90
17791;DHT22;9019;48.132;-1.210;2022-08-03T00:20:34;18.80;99.90
17791;DHT22;9019;48.132;-1.210;2022-08-03T00:23:01;18.70;99.90
17791;DHT22;9019;48.132;-1.210;2022-08-03T00:25:29;18.70;99.90
17791;DHT22;9019;48.132;-1.210;2022-08-03T00:27:56;18.60;99.90
17791;DHT22;9019;48.132;-1.210;2022-08-03T00:30:23;18.50;99.90
17791;DHT22;9019;48.132;-1.210;2022-08-03T00:32:50;18.50;99.90
17791;DHT22;9019;48.132;-1.210;2022-08-03T00:35:17;18.50;99.90
17791;DHT22;9019;48.132;-1.210;2022-08-03T00:37:44;18.60;99.90
17791;DHT22;9019;48.132;-1.210;2022-08-03T00:40:12;18.60;99.90
17791;DHT22;9019;48.132;-1.210;2022-08-03T00:42:49;18.60;99.90
17791;DHT22;9019;48.132;-1.210;2022-08-03T00:45:18;18.50;99.90
17791;DHT22;9019;48.132;-1.210;2022-08-03T00:47:45;18.50;99.90
17791;DHT22;9019;48.132;-1.210;2022-08-03T00:50:13;18.50;99.90
17791;DHT22;9019;48.132;-1.210;2022-08-03T00:52:40;18.40;99.90
17791;DHT22;9019;48.132;-1.210;2022-08-03T00:55:08;18.40;99.90
17791;DHT22;9019;48.132;-1.210;2022-08-03T00:57:36;18.40;99.90
17791;DHT22;9019;48.132;-1.210;2022-08-03T01:00:07;18.40;99.90
17791;DHT22;9019;48.132;-1.210;2022-08-03T01:02:34;18.40;99.90
17791;DHT22;9019;48.132;-1.210;2022-08-03T01:05:02;18.40;99.90
17791;DHT22;9019;48.132;-1.210;2022-08-03T01:07:38;18.30;99.90
17791;DHT22;9019;48.132;-1.210;2022-08-03T01:10:12;18.40;99.90
17791;DHT22;9019;48.132;-1.210;2022-08-03T01:12:49;18.30;99.90
17791;DHT22;9019;48.132;-1.210;2022-08-03T01:15:24;18.30;99.90
17791;DHT22;9019;48.132;-1.210;2022-08-03T01:17:56;18.30;99.90
17791;DHT22;9019;48.132;-1.210;2022-08-03T01:20:28;18.30;99.90
17791;DHT22;9019;48.132;-1.210;2022-08-03T01:23:06;18.20;99.90
17791;DHT22;9019;48.132;-1.210;2022-08-03T01:25:45;18.30;99.90
17791;DHT22;9019;48.132;-1.210;2022-08-03T01:28:28;18.20;99.90
17791;DHT22;9019;48.132;-1.210;2022-08-03T01:31:04;18.20;99.90
17791;DHT22;9019;48.132;-1.210;2022-08-03T01:33:35;18.20;99.90
17791;DHT22;9019;48.132;-1.210;2022-08-03T01:36:05;18.10;99.90
17791;DHT22;9019;48.132;-1.210;2022-08-03T01:38:35;18.10;99.90
17791;DHT22;9019;48.132;-1.210;2022-08-03T01:41:08;18.10;99.90
17791;DHT22;9019;48.132;-1.210;2022-08-03T01:43:38;18.00;99.90
17791;DHT22;9019;48.132;-1.210;2022-08-03T01:46:07;17.90;99.90
17791;DHT22;9019;48.132;-1.210;2022-08-03T01:48:37;17.90;99.90
17791;DHT22;9019;48.132;-1.210;2022-08-03T01:51:05;17.90;99.90
17791;DHT22;9019;48.132;-1.210;2022-08-03T01:53:35;17.90;99.90
17791;DHT22;9019;48.132;-1.210;2022-08-03T01:56:04;17.90;99.90
17791;DHT22;9019;48.132;-1.210;2022-08-03T01:58:34;17.80;99.90
17791;DHT22;9019;48.132;-1.210;2022-08-03T02:01:02;17.80;99.90
17791;DHT22;9019;48.132;-1.210;2022-08-03T02:03:33;17.80;99.90
17791;DHT22;9019;48.132;-1.210;2022-08-03T02:06:02;17.70;99.90
17791;DHT22;9019;48.132;-1.210;2022-08-03T02:08:31;17.70;99.90
17791;DHT22;9019;48.132;-1.210;2022-08-03T02:11:01;17.80;99.90
17791;DHT22;9019;48.132;-1.210;2022-08-03T02:13:29;17.70;99.90
17791;DHT22;9019;48.132;-1.210;2022-08-03T02:15:58;17.70;99.90
17791;DHT22;9019;48.132;-1.210;2022-08-03T02:18:27;17.60;99.90
17791;DHT22;9019;48.132;-1.210;2022-08-03T02:20:56;17.60;99.90
17791;DHT22;9019;48.132;-1.210;2022-08-03T02:23:24;17.50;99.90
17791;DHT22;9019;48.132;-1.210;2022-08-03T02:25:55;17.50;99.90
17791;DHT22;9019;48.132;-1.210;2022-08-03T02:28:28;17.50;99.90
17791;DHT22;9019;48.132;-1.210;2022-08-03T02:30:59;17.50;99.90
17791;DHT22;9019;48.132;-1.210;2022-08-03T02:33:31;17.50;99.90
17791;DHT22;9019;48.132;-1.210;2022-08-03T02:36:01;17.40;99.90
17791;DHT22;9019;48.132;-1.210;2022-08-03T02:38:32;17.40;99.90
17791;DHT22;9019;48.132;-1.210;2022-08-03T02:41:06;17.40;99.90
17791;DHT22;9019;48.132;-1.210;2022-08-03T02:43:34;17.40;99.90
17791;DHT22;9019;48.132;-1.210;2022-08-03T02:46:03;17.40;99.90
17791;DHT22;9019;48.132;-1.210;2022-08-03T02:48:32;17.30;99.90
17791;DHT22;9019;48.132;-1.210;2022-08-03T02:51:03;17.30;99.90
17791;DHT22;9019;48.132;-1.210;2022-08-03T02:53:31;17.20;99.90
17791;DHT22;9019;48.132;-1.210;2022-08-03T02:56:01;17.20;99.90
17791;DHT22;9019;48.132;-1.210;2022-08-03T02:58:30;17.20;99.90
17791;DHT22;9019;48.132;-1.210;2022-08-03T03:00:58;17.10;99.90
17791;DHT22;9019;48.132;-1.210;2022-08-03T03:03:26;17.00;99.90
17791;DHT22;9019;48.132;-1.210;2022-08-03T03:05:53;17.00;99.90
17791;DHT22;9019;48.132;-1.210;2022-08-03T03:08:23;17.00;99.90
17791;DHT22;9019;48.132;-1.210;2022-08-03T03:10:50;16.90;99.90
17791;DHT22;9019;48.132;-1.210;2022-08-03T03:13:18;16.90;99.90
17791;DHT22;9019;48.132;-1.210;2022-08-03T03:15:46;16.80;99.90
17791;DHT22;9019;48.132;-1.210;2022-08-03T03:18:14;16.90;99.90
17791;DHT22;9019;48.132;-1.210;2022-08-03T03:20:42;16.90;99.90
17791;DHT22;9019;48.132;-1.210;2022-08-03T03:23:10;16.80;99.90
17791;DHT22;9019;48.132;-1.210;2022-08-03T03:25:40;16.80;99.90
17791;DHT22;9019;48.132;-1.210;2022-08-03T03:28:08;16.80;99.90
17791;DHT22;9019;48.132;-1.210;2022-08-03T03:30:36;16.70;99.90
17791;DHT22;9019;48.132;-1.210;2022-08-03T03:33:03;16.70;99.90
17791;DHT22;9019;48.132;-1.210;2022-08-03T03:35:30;16.70;99.90
17791;DHT22;9019;48.132;-1.210;2022-08-03T03:37:58;16.60;99.90
17791;DHT22;9019;48.132;-1.210;2022-08-03T03:40:26;16.60;99.90
17791;DHT22;9019;48.132;-1.210;2022-08-03T03:42:55;16.60;99.90
17791;DHT22;9019;48.132;-1.210;2022-08-03T03:45:22;16.60;99.90
17791;DHT22;9019;48.132;-1.210;2022-08-03T03:47:49;16.60;99.90
17791;DHT22;9019;48.132;-1.210;2022-08-03T03:50:17;16.50;99.90
17791;DHT22;9019;48.132;-1.210;2022-08-03T03:52:45;16.50;99.90
17791;DHT22;9019;48.132;-1.210;2022-08-03T03:55:15;16.50;99.90
17791;DHT22;9019;48.132;-1.210;2022-08-03T03:57:42;16.50;99.90
17791;DHT22;9019;48.132;-1.210;2022-08-03T04:00:13;16.40;99.90
17791;DHT22;9019;48.132;-1.210;2022-08-03T04:02:40;16.40;99.90
17791;DHT22;9019;48.132;-1.210;2022-08-03T04:05:08;16.40;99.90
17791;DHT22;9019;48.132;-1.210;2022-08-03T04:07:57;16.40;99.90
17791;DHT22;9019;48.132;-1.210;2022-08-03T04:10:45;16.40;99.90
17791;DHT22;9019;48.132;-1.210;2022-08-03T04:13:29;16.40;99.90
17791;DHT22;9019;48.132;-1.210;2022-08-03T04:15:59;16.30;99.90
17791;DHT22;9019;48.132;-1.210;2022-08-03T04:18:29;16.30;99.90
17791;DHT22;9019;48.132;-1.210;2022-08-03T04:21:01;16.30;99.90
17791;DHT22;9019;48.132;-1.210;2022-08-03T04:23:30;16.30;99.90
17791;DHT22;9019;48.132;-1.210;2022-08-03T04:26:00;16.30;99.90
17791;DHT22;9019;48.132;-1.210;2022-08-03T04:28:27;16.20;99.90
17791;DHT22;9019;48.132;-1.210;2022-08-03T04:30:56;16.30;99.90
17791;DHT22;9019;48.132;-1.210;2022-08-03T04:33:25;16.20;99.90
17791;DHT22;9019;48.132;-1.210;2022-08-03T04:35:54;16.20;99.90
17791;DHT22;9019;48.132;-1.210;2022-08-03T04:38:24;16.20;99.90
17791;DHT22;9019;48.132;-1.210;2022-08-03T04:40:51;16.10;99.90
17791;DHT22;9019;48.132;-1.210;2022-08-03T04:43:20;16.00;99.90
17791;DHT22;9019;48.132;-1.210;2022-08-03T04:45:50;16.00;99.90
17791;DHT22;9019;48.132;-1.210;2022-08-03T04:48:18;16.00;99.90
17791;DHT22;9019;48.132;-1.210;2022-08-03T04:50:47;16.00;99.90
17791;DHT22;9019;48.132;-1.210;2022-08-03T04:53:15;16.00;99.90
17791;DHT22;9019;48.132;-1.210;2022-08-03T04:55:43;15.90;99.90
17791;DHT22;9019;48.132;-1.210;2022-08-03T04:58:09;15.90;99.90
17791;DHT22;9019;48.132;-1.210;2022-08-03T05:00:37;15.90;99.90
17791;DHT22;9019;48.132;-1.210;2022-08-03T05:03:04;16.00;99.90
17791;DHT22;9019;48.132;-1.210;2022-08-03T05:05:31;15.90;99.90
17791;DHT22;9019;48.132;-1.210;2022-08-03T05:07:59;16.00;99.90
17791;DHT22;9019;48.132;-1.210;2022-08-03T05:10:26;16.00;99.90
17791;DHT22;9019;48.132;-1.210;2022-08-03T05:12:53;16.10;99.90
17791;DHT22;9019;48.132;-1.210;2022-08-03T05:15:20;16.10;99.90
17791;DHT22;9019;48.132;-1.210;2022-08-03T05:17:47;16.20;99.90
17791;DHT22;9019;48.132;-1.210;2022-08-03T05:20:14;16.30;99.90
17791;DHT22;9019;48.132;-1.210;2022-08-03T05:22:41;16.30;99.90
17791;DHT22;9019;48.132;-1.210;2022-08-03T05:25:09;16.40;99.90
17791;DHT22;9019;48.132;-1.210;2022-08-03T05:27:36;16.40;99.90
17791;DHT22;9019;48.132;-1.210;2022-08-03T05:30:04;16.40;99.90
17791;DHT22;9019;48.132;-1.210;2022-08-03T05:32:31;16.50;99.90
17791;DHT22;9019;48.132;-1.210;2022-08-03T05:34:58;16.60;99.90
17791;DHT22;9019;48.132;-1.210;2022-08-03T05:37:25;16.80;99.90
17791;DHT22;9019;48.132;-1.210;2022-08-03T05:39:52;17.10;99.90
17791;DHT22;9019;48.132;-1.210;2022-08-03T05:42:20;17.40;99.90
17791;DHT22;9019;48.132;-1.210;2022-08-03T05:44:48;17.70;99.90
17791;DHT22;9019;48.132;-1.210;2022-08-03T05:47:14;18.00;99.90
17791;DHT22;9019;48.132;-1.210;2022-08-03T05:49:41;18.30;99.90
17791;DHT22;9019;48.132;-1.210;2022-08-03T05:52:08;18.60;99.90
17791;DHT22;9019;48.132;-1.210;2022-08-03T05:54:35;19.20;99.90
17791;DHT22;9019;48.132;-1.210;2022-08-03T05:57:02;19.80;99.90
17791;DHT22;9019;48.132;-1.210;2022-08-03T05:59:31;20.10;99.90
17791;DHT22;9019;48.132;-1.210;2022-08-03T06:01:58;20.30;99.90
17791;DHT22;9019;48.132;-1.210;2022-08-03T06:04:25;20.50;99.90
17791;DHT22;9019;48.132;-1.210;2022-08-03T06:06:52;21.00;99.90
17791;DHT22;9019;48.132;-1.210;2022-08-03T06:09:19;21.70;99.90
17791;DHT22;9019;48.132;-1.210;2022-08-03T06:11:46;22.40;99.90
17791;DHT22;9019;48.132;-1.210;2022-08-03T06:14:12;22.80;99.90
17791;DHT22;9019;48.132;-1.210;2022-08-03T06:16:41;23.30;99.90
17791;DHT22;9019;48.132;-1.210;2022-08-03T06:19:08;23.70;99.90
17791;DHT22;9019;48.132;-1.210;2022-08-03T06:21:34;24.20;99.90
17791;DHT22;9019;48.132;-1.210;2022-08-03T06:24:01;24.30;99.90
17791;DHT22;9019;48.132;-1.210;2022-08-03T06:26:28;24.50;99.90
17791;DHT22;9019;48.132;-1.210;2022-08-03T06:28:55;24.30;99.90
17791;DHT22;9019;48.132;-1.210;2022-08-03T06:31:24;24.90;99.90
17791;DHT22;9019;48.132;-1.210;2022-08-03T06:33:55;25.00;99.90
17791;DHT22;9019;48.132;-1.210;2022-08-03T06:36:22;25.80;99.90
17791;DHT22;9019;48.132;-1.210;2022-08-03T06:38:50;25.80;99.90
17791;DHT22;9019;48.132;-1.210;2022-08-03T06:41:17;26.00;99.90
17791;DHT22;9019;48.132;-1.210;2022-08-03T06:43:44;26.40;99.90
17791;DHT22;9019;48.132;-1.210;2022-08-03T06:46:11;26.80;99.90
17791;DHT22;9019;48.132;-1.210;2022-08-03T06:48:38;26.50;99.90
17791;DHT22;9019;48.132;-1.210;2022-08-03T06:51:06;27.00;99.90
17791;DHT22;9019;48.132;-1.210;2022-08-03T06:53:33;26.90;99.90
17791;DHT22;9019;48.132;-1.210;2022-08-03T06:56:00;27.40;99.90
17791;DHT22;9019;48.132;-1.210;2022-08-03T06:58:27;27.70;99.90
17791;DHT22;9019;48.132;-1.210;2022-08-03T07:00:54;27.70;99.90
17791;DHT22;9019;48.132;-1.210;2022-08-03T07:03:21;28.10;99.90
17791;DHT22;9019;48.132;-1.210;2022-08-03T07:05:48;28.10;99.90
17791;DHT22;9019;48.132;-1.210;2022-08-03T07:08:17;28.20;99.90
17791;DHT22;9019;48.132;-1.210;2022-08-03T07:10:44;28.30;99.90
17791;DHT22;9019;48.132;-1.210;2022-08-03T07:13:11;28.90;99.90
17791;DHT22;9019;48.132;-1.210;2022-08-03T07:15:38;28.40;99.90
17791;DHT22;9019;48.132;-1.210;2022-08-03T07:18:05;28.70;99.90
17791;DHT22;9019;48.132;-1.210;2022-08-03T07:20:32;29.80;99.90
17791;DHT22;9019;48.132;-1.210;2022-08-03T07:22:59;29.60;99.90
17791;DHT22;9019;48.132;-1.210;2022-08-03T07:25:27;29.00;99.90
17791;DHT22;9019;48.132;-1.210;2022-08-03T07:27:54;29.50;99.90
17791;DHT22;9019;48.132;-1.210;2022-08-03T07:30:21;29.80;99.90
17791;DHT22;9019;48.132;-1.210;2022-08-03T07:32:48;30.40;99.90
17791;DHT22;9019;48.132;-1.210;2022-08-03T07:35:15;30.90;99.90
17791;DHT22;9019;48.132;-1.210;2022-08-03T07:37:42;30.50;99.90
17791;DHT22;9019;48.132;-1.210;2022-08-03T07:40:09;29.90;99.90
17791;DHT22;9019;48.132;-1.210;2022-08-03T07:42:38;30.30;99.90
17791;DHT22;9019;48.132;-1.210;2022-08-03T07:45:05;30.50;99.90
17791;DHT22;9019;48.132;-1.210;2022-08-03T07:47:32;30.70;99.90
17791;DHT22;9019;48.132;-1.210;2022-08-03T07:49:59;30.50;99.90
17791;DHT22;9019;48.132;-1.210;2022-08-03T07:52:26;30.60;99.90
17791;DHT22;9019;48.132;-1.210;2022-08-03T07:55:11;30.50;99.90
17791;DHT22;9019;48.132;-1.210;2022-08-03T07:57:40;30.80;99.90
17791;DHT22;9019;48.132;-1.210;2022-08-03T08:00:13;31.10;99.90
17791;DHT22;9019;48.132;-1.210;2022-08-03T08:02:40;31.10;99.90
17791;DHT22;9019;48.132;-1.210;2022-08-03T08:05:07;31.10;99.90
17791;DHT22;9019;48.132;-1.210;2022-08-03T08:07:35;31.80;99.90
17791;DHT22;9019;48.132;-1.210;2022-08-03T08:10:04;32.10;99.90
17791;DHT22;9019;48.132;-1.210;2022-08-03T08:12:31;31.50;99.90
17791;DHT22;9019;48.132;-1.210;2022-08-03T08:14:59;32.00;99.90
17791;DHT22;9019;48.132;-1.210;2022-08-03T08:17:26;31.30;99.90
17791;DHT22;9019;48.132;-1.210;2022-08-03T08:19:53;32.20;99.90
17791;DHT22;9019;48.132;-1.210;2022-08-03T08:22:20;32.30;99.90
17791;DHT22;9019;48.132;-1.210;2022-08-03T08:24:47;31.90;99.90
17791;DHT22;9019;48.132;-1.210;2022-08-03T08:27:14;33.20;99.90
17791;DHT22;9019;48.132;-1.210;2022-08-03T08:29:41;34.20;99.90
17791;DHT22;9019;48.132;-1.210;2022-08-03T08:32:10;33.30;99.90
17791;DHT22;9019;48.132;-1.210;2022-08-03T08:34:39;33.90;99.90
17791;DHT22;9019;48.132;-1.210;2022-08-03T08:37:06;35.00;99.90
17791;DHT22;9019;48.132;-1.210;2022-08-03T08:39:32;35.30;99.90
17791;DHT22;9019;48.132;-1.210;2022-08-03T08:41:59;35.90;99.90
17791;DHT22;9019;48.132;-1.210;2022-08-03T08:44:28;35.30;99.90
17791;DHT22;9019;48.132;-1.210;2022-08-03T08:46:56;34.60;99.90
17791;DHT22;9019;48.132;-1.210;2022-08-03T08:49:27;34.60;99.90
17791;DHT22;9019;48.132;-1.210;2022-08-03T08:51:55;33.60;99.90
17791;DHT22;9019;48.132;-1.210;2022-08-03T08:54:24;33.80;99.90
17791;DHT22;9019;48.132;-1.210;2022-08-03T08:56:52;34.20;99.90
17791;DHT22;9019;48.132;-1.210;2022-08-03T08:59:21;34.50;99.90
17791;DHT22;9019;48.132;-1.210;2022-08-03T09:01:49;34.80;99.90
17791;DHT22;9019;48.132;-1.210;2022-08-03T09:04:17;35.50;99.90
17791;DHT22;9019;48.132;-1.210;2022-08-03T09:06:45;35.60;99.90
17791;DHT22;9019;48.132;-1.210;2022-08-03T09:09:12;35.80;95.30
17791;DHT22;9019;48.132;-1.210;2022-08-03T09:11:41;35.80;90.30
17791;DHT22;9019;48.132;-1.210;2022-08-03T09:14:09;37.10;73.80
17791;DHT22;9019;48.132;-1.210;2022-08-03T09:16:35;38.10;51.20
17791;DHT22;9019;48.132;-1.210;2022-08-03T09:19:11;38.20;33.70
17791;DHT22;9019;48.132;-1.210;2022-08-03T09:21:38;39.40;18.70
17791;DHT22;9019;48.132;-1.210;2022-08-03T09:24:07;40.00;7.20
17791;DHT22;9019;48.132;-1.210;2022-08-03T09:26:35;40.10;1.40
17791;DHT22;9019;48.132;-1.210;2022-08-03T09:29:05;40.40;1.00
17791;DHT22;9019;48.132;-1.210;2022-08-03T09:31:34;38.50;1.00
17791;DHT22;9019;48.132;-1.210;2022-08-03T09:34:04;39.30;1.00
17791;DHT22;9019;48.132;-1.210;2022-08-03T09:36:35;39.00;1.00
17791;DHT22;9019;48.132;-1.210;2022-08-03T09:39:03;38.80;1.00
17791;DHT22;9019;48.132;-1.210;2022-08-03T09:41:32;39.00;1.00
17791;DHT22;9019;48.132;-1.210;2022-08-03T09:43:59;38.90;1.00
17791;DHT22;9019;48.132;-1.210;2022-08-03T09:46:26;39.60;1.00
17791;DHT22;9019;48.132;-1.210;2022-08-03T09:49:08;38.80;1.00
17791;DHT22;9019;48.132;-1.210;2022-08-03T09:51:36;40.30;1.00
17791;DHT22;9019;48.132;-1.210;2022-08-03T09:54:04;40.50;1.00
17791;DHT22;9019;48.132;-1.210;2022-08-03T09:56:43;40.30;1.00
17791;DHT22;9019;48.132;-1.210;2022-08-03T09:59:12;39.90;1.00
17791;DHT22;9019;48.132;-1.210;2022-08-03T10:01:39;39.70;1.00
17791;DHT22;9019;48.132;-1.210;2022-08-03T10:04:11;40.70;1.00
17791;DHT22;9019;48.132;-1.210;2022-08-03T10:06:39;40.70;1.00
17791;DHT22;9019;48.132;-1.210;2022-08-03T10:09:08;40.20;1.00
17791;DHT22;9019;48.132;-1.210;2022-08-03T10:11:36;41.40;1.00
17791;DHT22;9019;48.132;-1.210;2022-08-03T10:14:06;40.90;1.00
17791;DHT22;9019;48.132;-1.210;2022-08-03T10:16:34;40.80;1.00
17791;DHT22;9019;48.132;-1.210;2022-08-03T10:19:03;41.00;1.00
17791;DHT22;9019;48.132;-1.210;2022-08-03T10:21:32;40.70;1.00
17791;DHT22;9019;48.132;-1.210;2022-08-03T10:24:02;41.20;1.00
17791;DHT22;9019;48.132;-1.210;2022-08-03T10:26:30;40.10;1.00
17791;DHT22;9019;48.132;-1.210;2022-08-03T10:28:59;40.40;1.00
17791;DHT22;9019;48.132;-1.210;2022-08-03T10:31:34;40.60;1.00
17791;DHT22;9019;48.132;-1.210;2022-08-03T10:34:08;40.00;1.00
17791;DHT22;9019;48.132;-1.210;2022-08-03T10:36:37;38.80;1.00
17791;DHT22;9019;48.132;-1.210;2022-08-03T10:39:06;39.30;1.00
17791;DHT22;9019;48.132;-1.210;2022-08-03T10:41:37;40.80;1.00
17791;DHT22;9019;48.132;-1.210;2022-08-03T10:44:08;41.80;1.00
17791;DHT22;9019;48.132;-1.210;2022-08-03T10:46:38;41.90;1.00
17791;DHT22;9019;48.132;-1.210;2022-08-03T10:49:06;40.90;1.00
17791;DHT22;9019;48.132;-1.210;2022-08-03T10:51:33;41.00;1.00
17791;DHT22;9019;48.132;-1.210;2022-08-03T10:54:00;41.30;1.00
17791;DHT22;9019;48.132;-1.210;2022-08-03T10:56:37;41.60;1.00
17791;DHT22;9019;48.132;-1.210;2022-08-03T10:59:56;40.80;1.00
17791;DHT22;9019;48.132;-1.210;2022-08-03T11:03:03;40.50;1.00
17791;DHT22;9019;48.132;-1.210;2022-08-03T11:05:33;41.80;1.00
17791;DHT22;9019;48.132;-1.210;2022-08-03T11:08:20;42.00;1.00
17791;DHT22;9019;48.132;-1.210;2022-08-03T11:10:48;40.50;1.00
17791;DHT22;9019;48.132;-1.210;2022-08-03T11:13:17;41.60;1.00
17791;DHT22;9019;48.132;-1.210;2022-08-03T11:15:46;41.60;1.00
17791;DHT22;9019;48.132;-1.210;2022-08-03T11:18:14;41.30;1.00
17791;DHT22;9019;48.132;-1.210;2022-08-03T11:20:46;41.30;1.00
17791;DHT22;9019;48.132;-1.210;2022-08-03T11:23:14;41.40;1.00
17791;DHT22;9019;48.132;-1.210;2022-08-03T11:26:10;41.30;1.00
17791;DHT22;9019;48.132;-1.210;2022-08-03T11:28:37;41.60;1.00
17791;DHT22;9019;48.132;-1.210;2022-08-03T11:31:44;42.00;1.00
17791;DHT22;9019;48.132;-1.210;2022-08-03T11:34:16;42.10;1.00
17791;DHT22;9019;48.132;-1.210;2022-08-03T11:39:44;41.00;1.00
17791;DHT22;9019;48.132;-1.210;2022-08-03T11:42:39;40.00;1.00
17791;DHT22;9019;48.132;-1.210;2022-08-03T11:45:07;40.40;1.00
17791;DHT22;9019;48.132;-1.210;2022-08-03T11:47:37;41.60;1.00
17791;DHT22;9019;48.132;-1.210;2022-08-03T11:50:07;40.90;1.00
17791;DHT22;9019;48.132;-1.210;2022-08-03T11:52:39;41.00;1.00
17791;DHT22;9019;48.132;-1.210;2022-08-03T11:55:11;42.10;1.00
17791;DHT22;9019;48.132;-1.210;2022-08-03T11:57:38;41.50;1.00
17791;DHT22;9019;48.132;-1.210;2022-08-03T12:00:25;41.60;1.00
17791;DHT22;9019;48.132;-1.210;2022-08-03T12:02:59;41.90;1.00
17791;DHT22;9019;48.132;-1.210;2022-08-03T12:05:35;41.70;1.00
17791;DHT22;9019;48.132;-1.210;2022-08-03T12:08:02;43.00;1.00
17791;DHT22;9019;48.132;-1.210;2022-08-03T12:10:29;41.90;1.00
17791;DHT22;9019;48.132;-1.210;2022-08-03T12:12:58;39.80;1.00
17791;DHT22;9019;48.132;-1.210;2022-08-03T12:15:27;39.80;1.00
17791;DHT22;9019;48.132;-1.210;2022-08-03T12:17:55;39.40;1.00
17791;DHT22;9019;48.132;-1.210;2022-08-03T12:20:24;40.90;1.00
17791;DHT22;9019;48.132;-1.210;2022-08-03T12:22:53;39.70;1.00
17791;DHT22;9019;48.132;-1.210;2022-08-03T12:25:21;40.70;1.00
17791;DHT22;9019;48.132;-1.210;2022-08-03T12:27:49;42.00;1.00
17791;DHT22;9019;48.132;-1.210;2022-08-03T12:30:16;41.40;1.00
17791;DHT22;9019;48.132;-1.210;2022-08-03T12:32:43;41.60;1.00
17791;DHT22;9019;48.132;-1.210;2022-08-03T12:35:21;41.40;1.00
17791;DHT22;9019;48.132;-1.210;2022-08-03T12:37:49;40.40;1.00
17791;DHT22;9019;48.132;-1.210;2022-08-03T12:40:25;41.50;1.00
17791;DHT22;9019;48.132;-1.210;2022-08-03T12:42:52;42.00;1.00
17791;DHT22;9019;48.132;-1.210;2022-08-03T12:45:20;41.60;1.00
17791;DHT22;9019;48.132;-1.210;2022-08-03T12:47:53;40.00;1.00
17791;DHT22;9019;48.132;-1.210;2022-08-03T12:50:24;40.70;1.00
17791;DHT22;9019;48.132;-1.210;2022-08-03T12:52:52;41.00;1.00
17791;DHT22;9019;48.132;-1.210;2022-08-03T12:55:20;40.90;1.00
17791;DHT22;9019;48.132;-1.210;2022-08-03T12:57:49;41.10;1.00
17791;DHT22;9019;48.132;-1.210;2022-08-03T13:00:17;41.30;1.00
17791;DHT22;9019;48.132;-1.210;2022-08-03T13:02:45;41.70;1.00
17791;DHT22;9019;48.132;-1.210;2022-08-03T13:05:13;41.70;1.00
17791;DHT22;9019;48.132;-1.210;2022-08-03T13:07:40;41.60;1.00
17791;DHT22;9019;48.132;-1.210;2022-08-03T13:10:08;40.80;1.00
17791;DHT22;9019;48.132;-1.210;2022-08-03T13:12:45;40.70;1.00
17791;DHT22;9019;48.132;-1.210;2022-08-03T13:15:14;40.50;1.00
17791;DHT22;9019;48.132;-1.210;2022-08-03T13:17:41;40.70;1.00
17791;DHT22;9019;48.132;-1.210;2022-08-03T13:20:09;41.10;1.00
17791;DHT22;9019;48.132;-1.210;2022-08-03T13:22:36;41.10;1.00
17791;DHT22;9019;48.132;-1.210;2022-08-03T13:25:04;41.30;1.00
17791;DHT22;9019;48.132;-1.210;2022-08-03T13:27:31;41.30;1.00
17791;DHT22;9019;48.132;-1.210;2022-08-03T13:29:58;40.70;1.00
17791;DHT22;9019;48.132;-1.210;2022-08-03T13:32:26;40.60;1.00
17791;DHT22;9019;48.132;-1.210;2022-08-03T13:34:53;39.90;1.00
17791;DHT22;9019;48.132;-1.210;2022-08-03T13:37:20;38.90;1.00
17791;DHT22;9019;48.132;-1.210;2022-08-03T13:39:47;38.70;1.00
17791;DHT22;9019;48.132;-1.210;2022-08-03T13:42:14;38.10;1.00
17791;DHT22;9019;48.132;-1.210;2022-08-03T13:44:41;38.50;1.00
17791;DHT22;9019;48.132;-1.210;2022-08-03T13:47:08;38.70;1.00
17791;DHT22;9019;48.132;-1.210;2022-08-03T13:49:36;38.40;1.00
17791;DHT22;9019;48.132;-1.210;2022-08-03T13:52:04;39.20;1.00
17791;DHT22;9019;48.132;-1.210;2022-08-03T13:54:31;40.00;1.00
17791;DHT22;9019;48.132;-1.210;2022-08-03T13:56:58;40.00;1.00
17791;DHT22;9019;48.132;-1.210;2022-08-03T13:59:25;39.70;1.00
17791;DHT22;9019;48.132;-1.210;2022-08-03T14:01:53;39.80;1.00
17791;DHT22;9019;48.132;-1.210;2022-08-03T14:04:20;39.90;1.00
17791;DHT22;9019;48.132;-1.210;2022-08-03T14:06:49;39.50;1.00
17791;DHT22;9019;48.132;-1.210;2022-08-03T14:09:16;38.80;1.00
17791;DHT22;9019;48.132;-1.210;2022-08-03T14:11:43;38.40;1.00
17791;DHT22;9019;48.132;-1.210;2022-08-03T14:14:10;38.20;1.00
17791;DHT22;9019;48.132;-1.210;2022-08-03T14:16:37;39.20;1.00
17791;DHT22;9019;48.132;-1.210;2022-08-03T14:19:04;39.50;1.00
17791;DHT22;9019;48.132;-1.210;2022-08-03T14:21:32;40.60;1.00
17791;DHT22;9019;48.132;-1.210;2022-08-03T14:24:01;40.70;1.00
17791;DHT22;9019;48.132;-1.210;2022-08-03T14:26:28;40.60;1.00
17791;DHT22;9019;48.132;-1.210;2022-08-03T14:28:55;40.70;1.00
17791;DHT22;9019;48.132;-1.210;2022-08-03T14:31:22;38.30;1.00
17791;DHT22;9019;48.132;-1.210;2022-08-03T14:33:51;37.00;1.00
17791;DHT22;9019;48.132;-1.210;2022-08-03T14:36:18;37.70;1.00
17791;DHT22;9019;48.132;-1.210;2022-08-03T14:38:45;38.60;1.00
17791;DHT22;9019;48.132;-1.210;2022-08-03T14:41:13;39.90;1.00
17791;DHT22;9019;48.132;-1.210;2022-08-03T14:43:40;40.10;1.00
17791;DHT22;9019;48.132;-1.210;2022-08-03T14:46:07;39.40;1.00
17791;DHT22;9019;48.132;-1.210;2022-08-03T14:48:34;38.70;1.00
17791;DHT22;9019;48.132;-1.210;2022-08-03T14:51:01;38.10;1.00
17791;DHT22;9019;48.132;-1.210;2022-08-03T14:53:28;39.10;1.00
17791;DHT22;9019;48.132;-1.210;2022-08-03T14:55:55;38.50;1.00
17791;DHT22;9019;48.132;-1.210;2022-08-03T14:58:24;37.30;1.00
17791;DHT22;9019;48.132;-1.210;2022-08-03T15:00:52;37.50;1.00
17791;DHT22;9019;48.132;-1.210;2022-08-03T15:03:20;38.70;1.00
17791;DHT22;9019;48.132;-1.210;2022-08-03T15:05:49;38.90;1.00
17791;DHT22;9019;48.132;-1.210;2022-08-03T15:08:16;38.90;1.00
17791;DHT22;9019;48.132;-1.210;2022-08-03T15:10:43;39.20;1.00
17791;DHT22;9019;48.132;-1.210;2022-08-03T15:13:10;39.20;1.00
17791;DHT22;9019;48.132;-1.210;2022-08-03T15:15:39;38.80;1.00
17791;DHT22;9019;48.132;-1.210;2022-08-03T15:18:06;38.20;1.00
17791;DHT22;9019;48.132;-1.210;2022-08-03T15:20:33;37.60;1.00
17791;DHT22;9019;48.132;-1.210;2022-08-03T15:23:00;38.20;1.00
17791;DHT22;9019;48.132;-1.210;2022-08-03T15:25:27;38.50;1.00
17791;DHT22;9019;48.132;-1.210;2022-08-03T15:27:54;38.80;1.00
17791;DHT22;9019;48.132;-1.210;2022-08-03T15:30:21;39.40;1.00
17791;DHT22;9019;48.132;-1.210;2022-08-03T15:32:50;39.40;1.00
17791;DHT22;9019;48.132;-1.210;2022-08-03T15:35:17;39.40;1.00
17791;DHT22;9019;48.132;-1.210;2022-08-03T15:37:44;38.90;1.00
17791;DHT22;9019;48.132;-1.210;2022-08-03T15:40:11;37.90;1.00
17791;DHT22;9019;48.132;-1.210;2022-08-03T15:42:38;37.70;1.00
17791;DHT22;9019;48.132;-1.210;2022-08-03T15:45:06;37.60;1.00
17791;DHT22;9019;48.132;-1.210;2022-08-03T15:47:33;36.80;11.50
17791;DHT22;9019;48.132;-1.210;2022-08-03T15:50:01;35.10;39.00
17791;DHT22;9019;48.132;-1.210;2022-08-03T15:52:28;34.00;62.50